Time;durP1;ratioP1;P1;durP2;ratioP2;P2;SDS_P1;SDS_P2;PMS_P1;PMS_P2;Temp;Humidity;BMP_temperature;BMP_pressure;BME280_temperature;BME280_humidity;BME280_pressure;Samples;Min_cycle;Max_cycle;Signal;HPM_P1;HPM_P2
2023/08/07 00:00:54;;;;;;;2.78;1.30;;;;;;;14.77;98.96;100219.91;4999706;28;20511;-46
2023/08/07 00:03:20;;;;;;;2.55;1.65;;;;;;;14.73;98.89;100218.38;4998806;28;20185;-45
2023/08/07 00:05:46;;;;;;;3.08;1.45;;;;;;;14.80;98.72;100219.72;4996500;28;20275;-46
2023/08/07 00:08:12;;;;;;;2.65;1.58;;;;;;;14.72;98.52;100223.91;4998737;28;20236;-46
2023/08/07 00:10:37;;;;;;;3.22;1.63;;;;;;;14.80;98.33;100211.66;4998941;28;20218;-47
2023/08/07 00:13:03;;;;;;;4.25;1.60;;;;;;;14.72;98.10;100211.28;4998229;28;20260;-46
2023/08/07 00:15:29;;;;;;;2.75;1.58;;;;;;;14.71;97.89;100205.97;4999239;28;20687;-47
2023/08/07 00:17:54;;;;;;;3.75;1.50;;;;;;;14.69;98.01;100206.06;4999193;28;20209;-45
2023/08/07 00:20:20;;;;;;;2.65;1.83;;;;;;;14.59;98.22;100205.81;5025333;23;21327;-47
2023/08/07 00:22:45;;;;;;;1.95;1.52;;;;;;;14.54;98.38;100207.03;4973287;28;20194;-49
2023/08/07 00:25:11;;;;;;;3.78;1.90;;;;;;;14.59;98.52;100200.41;4975538;28;20214;-47
2023/08/07 00:27:36;;;;;;;1.73;1.48;;;;;;;14.56;98.57;100200.63;4984858;28;20216;-50
2023/08/07 00:30:02;;;;;;;3.75;1.52;;;;;;;14.58;98.76;100201.41;5001203;28;20685;-49
2023/08/07 00:32:28;;;;;;;2.75;1.55;;;;;;;14.56;98.66;100203.34;4999394;28;20268;-46
2023/08/07 00:34:53;;;;;;;3.97;1.58;;;;;;;14.49;99.13;100203.78;5001926;28;20296;-50
2023/08/07 00:37:18;;;;;;;2.42;1.42;;;;;;;14.50;99.28;100192.03;4999579;28;20200;-48
2023/08/07 00:39:44;;;;;;;2.20;1.50;;;;;;;14.60;99.56;100196.75;5000468;28;20176;-48
2023/08/07 00:42:10;;;;;;;1.73;1.45;;;;;;;14.55;99.48;100192.63;5001500;28;20335;-48
2023/08/07 00:44:35;;;;;;;2.10;1.98;;;;;;;14.57;99.86;100196.09;4996105;28;20554;-49
2023/08/07 00:47:01;;;;;;;5.18;2.35;;;;;;;14.57;99.86;100201.50;4997880;28;20295;-49
2023/08/07 00:49:27;;;;;;;3.47;1.40;;;;;;;14.57;99.92;100199.66;4987862;28;20197;-51
2023/08/07 00:51:52;;;;;;;4.22;1.52;;;;;;;14.55;99.92;100198.03;4998297;28;20184;-49
2023/08/07 00:54:20;;;;;;;2.67;1.45;;;;;;;14.51;100.00;100196.47;5000057;28;20210;-50
2023/08/07 00:56:46;;;;;;;5.32;1.60;;;;;;;14.51;100.00;100197.31;5001372;28;20287;-50
2023/08/07 00:59:13;;;;;;;3.53;1.50;;;;;;;14.52;100.00;100193.66;5000880;28;20267;-49
2023/08/07 01:01:39;;;;;;;2.47;1.40;;;;;;;14.46;100.00;100196.75;4999920;28;20196;-48
2023/08/07 01:04:04;;;;;;;1.65;1.50;;;;;;;14.49;100.00;100193.84;4999491;28;20174;-48
2023/08/07 01:06:30;;;;;;;3.25;1.60;;;;;;;14.45;100.00;100195.00;4996634;28;20216;-50
2023/08/07 01:08:57;;;;;;;5.30;1.80;;;;;;;14.45;100.00;100194.16;4992418;28;20196;-48
2023/08/07 01:11:47;;;;;;;3.50;2.00;;;;;;;14.49;100.00;100188.47;5004486;28;20191;-49
2023/08/07 01:14:25;;;;;;;2.83;1.63;;;;;;;14.37;100.00;100191.97;5000104;28;20226;-47
2023/08/07 01:16:57;;;;;;;4.78;1.73;;;;;;;14.43;100.00;100197.81;5001637;28;20721;-48
2023/08/07 01:19:28;;;;;;;4.93;1.60;;;;;;;14.32;100.00;100181.50;4978922;28;20735;-47
2023/08/07 01:22:11;;;;;;;2.55;1.50;;;;;;;14.28;100.00;100179.94;4997445;28;20199;-48
2023/08/07 01:24:42;;;;;;;1.83;1.60;;;;;;;14.26;100.00;100178.31;4988770;28;20187;-48
2023/08/07 01:27:17;;;;;;;4.90;1.67;;;;;;;14.28;100.00;100188.03;4996608;28;20218;-49
2023/08/07 01:30:20;;;;;;;2.70;1.77;;;;;;;14.31;100.00;100177.03;4999004;28;20450;-49
2023/08/07 01:33:01;;;;;;;3.08;1.50;;;;;;;14.25;100.00;100182.81;5001889;28;20741;-50
2023/08/07 01:35:34;;;;;;;2.35;1.83;;;;;;;14.24;100.00;100174.84;4998462;28;20216;-49
2023/08/07 01:38:02;;;;;;;2.95;1.98;;;;;;;14.17;100.00;100183.31;5001495;28;20215;-47
2023/08/07 01:40:29;;;;;;;2.67;2.00;;;;;;;14.20;100.00;100176.88;5003209;28;20185;-48
2023/08/07 01:42:55;;;;;;;4.03;1.85;;;;;;;14.14;100.00;100175.41;4991497;28;20175;-49
2023/08/07 01:45:25;;;;;;;5.85;1.85;;;;;;;14.12;100.00;100177.34;5002200;28;20177;-50
2023/08/07 01:47:52;;;;;;;3.90;1.88;;;;;;;14.11;100.00;100174.78;5004950;28;20713;-49
2023/08/07 01:50:19;;;;;;;3.72;1.92;;;;;;;14.13;100.00;100180.94;5002589;28;20654;-51
2023/08/07 01:52:46;;;;;;;4.40;2.13;;;;;;;14.12;100.00;100163.88;4998873;28;20574;-49
2023/08/07 01:55:13;;;;;;;5.13;1.80;;;;;;;14.11;100.00;100169.38;5006168;28;20178;-50
2023/08/07 01:57:39;;;;;;;4.13;2.10;;;;;;;14.16;100.00;100175.34;5004446;28;20621;-49
2023/08/07 02:00:05;;;;;;;2.03;1.88;;;;;;;14.10;100.00;100165.84;4985036;28;20169;-51
2023/08/07 02:02:40;;;;;;;4.43;2.03;;;;;;;14.12;100.00;100163.00;5002023;28;20214;-49
2023/08/07 02:05:06;;;;;;;5.88;2.00;;;;;;;14.11;100.00;100166.69;4999637;28;20161;-50
2023/08/07 02:07:32;;;;;;;3.70;1.90;;;;;;;14.05;100.00;100170.63;5000538;28;20328;-47
2023/08/07 02:09:57;;;;;;;4.28;2.22;;;;;;;13.99;100.00;100171.00;4998258;28;20208;-49
2023/08/07 02:12:24;;;;;;;5.78;1.90;;;;;;;14.07;100.00;100170.53;5002765;28;20196;-49
2023/08/07 02:14:50;;;;;;;4.13;2.10;;;;;;;14.06;100.00;100171.47;5003125;28;20181;-47
2023/08/07 02:17:15;;;;;;;4.10;2.10;;;;;;;14.05;100.00;100164.38;4995227;28;20877;-50
2023/08/07 02:19:40;;;;;;;3.70;2.15;;;;;;;14.16;100.00;100170.81;4998684;28;20173;-49
2023/08/07 02:22:06;;;;;;;5.30;2.17;;;;;;;14.06;100.00;100166.09;5002890;28;20276;-50
2023/08/07 02:24:32;;;;;;;5.72;2.30;;;;;;;14.07;100.00;100157.06;4986060;28;20580;-51
2023/08/07 02:26:58;;;;;;;6.82;2.65;;;;;;;14.00;100.00;100157.44;5000107;28;20578;-49
2023/08/07 02:29:23;;;;;;;6.22;2.28;;;;;;;14.05;100.00;100159.00;5001313;28;20199;-50
2023/08/07 02:31:49;;;;;;;4.35;2.33;;;;;;;14.01;100.00;100151.13;5004134;28;20188;-49
2023/08/07 02:34:15;;;;;;;6.22;2.40;;;;;;;14.06;100.00;100158.91;4999798;28;20216;-50
2023/08/07 02:36:40;;;;;;;3.47;2.00;;;;;;;14.04;100.00;100170.72;4988776;28;20176;-49
2023/08/07 02:39:06;;;;;;;4.82;2.47;;;;;;;14.00;100.00;100170.91;5002490;28;20540;-47
2023/08/07 02:41:32;;;;;;;3.97;2.70;;;;;;;13.99;100.00;100173.69;5000112;28;20684;-49
2023/08/07 02:44:00;;;;;;;3.88;2.38;;;;;;;13.96;100.00;100171.22;4999661;28;20543;-47
2023/08/07 02:46:25;;;;;;;5.00;2.45;;;;;;;13.95;100.00;100170.34;4989223;28;20274;-48
2023/08/07 02:48:51;;;;;;;3.80;2.03;;;;;;;13.98;100.00;100164.75;4985393;28;20585;-49
2023/08/07 02:51:16;;;;;;;3.92;2.60;;;;;;;13.98;100.00;100159.38;5001658;28;20183;-47
2023/08/07 02:53:42;;;;;;;5.85;2.03;;;;;;;13.95;100.00;100153.31;5000275;28;20193;-49
2023/08/07 02:56:07;;;;;;;3.42;2.17;;;;;;;13.90;100.00;100147.34;5002322;28;20562;-49
2023/08/07 02:58:33;;;;;;;2.15;1.88;;;;;;;13.94;100.00;100160.53;4988787;28;20199;-48
2023/08/07 03:01:08;;;;;;;8.32;2.47;;;;;;;13.92;100.00;100151.69;4996284;28;20264;-48
2023/08/07 03:03:33;;;;;;;5.47;2.45;;;;;;;13.96;100.00;100133.50;5003226;28;20185;-50
2023/08/07 03:05:59;;;;;;;4.57;2.50;;;;;;;13.96;100.00;100134.38;4998409;28;20235;-47
2023/08/07 03:08:24;;;;;;;3.72;1.88;;;;;;;13.90;100.00;100137.44;4994152;28;20204;-49
2023/08/07 03:10:58;;;;;;;3.67;2.58;;;;;;;13.92;100.00;100135.50;4997853;28;20199;-49
2023/08/07 03:13:25;;;;;;;4.13;2.15;;;;;;;13.91;100.00;100141.88;5000435;28;20661;-48
2023/08/07 03:16:01;;;;;;;2.80;2.03;;;;;;;13.92;100.00;100134.66;4999499;28;20949;-48
2023/08/07 03:18:28;;;;;;;7.22;2.20;;;;;;;13.88;100.00;100123.19;4997651;28;20336;-49
2023/08/07 03:20:55;;;;;;;4.88;1.98;;;;;;;13.90;100.00;100132.06;4997052;28;20189;-50
2023/08/07 03:23:22;;;;;;;9.10;2.33;;;;;;;13.91;100.00;100131.09;5000038;28;20197;-49
2023/08/07 03:25:47;;;;;;;4.45;2.47;;;;;;;13.98;100.00;100134.28;4997093;28;20573;-49
2023/08/07 03:28:13;;;;;;;4.63;1.80;;;;;;;13.97;100.00;100133.41;4996238;28;20228;-49
2023/08/07 03:30:38;;;;;;;7.15;2.28;;;;;;;14.02;100.00;100130.44;5004040;28;20226;-49
2023/08/07 03:33:04;;;;;;;7.50;2.53;;;;;;;13.97;100.00;100125.34;4983107;28;20185;-51
2023/08/07 03:35:30;;;;;;;4.28;2.28;;;;;;;14.07;100.00;100122.91;4995964;28;20178;-48
2023/08/07 03:37:56;;;;;;;2.90;2.28;;;;;;;14.03;100.00;100121.38;5001241;28;20307;-51
2023/08/07 03:40:22;;;;;;;3.42;2.25;;;;;;;14.11;100.00;100120.91;4997241;28;20556;-50
2023/08/07 03:42:48;;;;;;;3.25;1.95;;;;;;;14.09;100.00;100120.13;4998050;28;20501;-50
2023/08/07 03:45:13;;;;;;;5.57;2.50;;;;;;;14.08;100.00;100121.06;4996558;28;20173;-49
2023/08/07 03:47:39;;;;;;;5.28;2.40;;;;;;;14.03;100.00;100118.69;5001756;28;20716;-50
2023/08/07 03:50:05;;;;;;;5.18;2.00;;;;;;;14.09;100.00;100120.13;4982023;28;20204;-51
2023/08/07 03:52:30;;;;;;;5.50;2.00;;;;;;;14.21;100.00;100119.31;4996548;28;20698;-48
2023/08/07 03:54:56;;;;;;;4.65;2.10;;;;;;;14.19;100.00;100115.84;4986435;28;20213;-48
2023/08/07 03:57:22;;;;;;;9.32;2.05;;;;;;;14.12;100.00;100123.47;4997795;28;20189;-48
2023/08/07 03:59:49;;;;;;;8.30;2.38;;;;;;;14.13;100.00;100116.28;4995333;28;20656;-49
2023/08/07 04:02:14;;;;;;;5.85;1.73;;;;;;;14.12;100.00;100122.59;4997258;28;20183;-51
2023/08/07 04:04:40;;;;;;;7.30;2.58;;;;;;;14.12;100.00;100114.53;4999494;28;20182;-49
2023/08/07 04:07:05;;;;;;;6.32;2.00;;;;;;;14.15;100.00;100115.22;4985481;28;20752;-49
2023/08/07 04:09:32;;;;;;;6.97;1.90;;;;;;;14.19;100.00;100113.16;4999292;28;20196;-48
2023/08/07 04:11:57;;;;;;;7.78;2.67;;;;;;;14.12;100.00;100091.13;4999476;28;20188;-49
2023/08/07 04:14:23;;;;;;;5.03;1.90;;;;;;;14.22;100.00;100094.13;4998171;28;20176;-50
2023/08/07 04:16:48;;;;;;;8.93;2.30;;;;;;;14.28;100.00;100099.13;4993926;28;20208;-49
2023/08/07 04:19:14;;;;;;;7.40;2.03;;;;;;;14.22;100.00;100094.13;4987442;28;20169;-49
2023/08/07 04:21:39;;;;;;;6.15;2.17;;;;;;;14.24;100.00;100092.19;4998039;28;20539;-51
2023/08/07 04:24:10;;;;;;;3.55;1.92;;;;;;;14.26;100.00;100089.41;4996344;28;20203;-50
2023/08/07 04:26:36;;;;;;;8.27;2.20;;;;;;;14.24;100.00;100099.41;4998790;28;20165;-48
2023/08/07 04:29:02;;;;;;;6.60;2.45;;;;;;;14.28;100.00;100100.91;5000300;28;20201;-49
2023/08/07 04:31:27;;;;;;;6.28;2.20;;;;;;;14.28;100.00;100099.13;5001061;28;20647;-50
2023/08/07 04:33:53;;;;;;;6.82;2.22;;;;;;;14.26;100.00;100100.19;4984085;28;20208;-48
2023/08/07 04:36:19;;;;;;;6.97;2.40;;;;;;;14.37;100.00;100106.59;5002175;28;20181;-50
2023/08/07 04:38:44;;;;;;;5.72;2.42;;;;;;;14.29;100.00;100100.81;5000811;28;20245;-49
2023/08/07 04:41:10;;;;;;;5.43;2.40;;;;;;;14.28;100.00;100109.00;4999089;28;20189;-47
2023/08/07 04:43:35;;;;;;;4.68;2.28;;;;;;;14.36;100.00;100104.84;4999066;28;20555;-48
2023/08/07 04:46:01;;;;;;;4.75;2.28;;;;;;;14.37;100.00;100105.72;4998778;28;20332;-50
2023/08/07 04:48:26;;;;;;;6.53;2.30;;;;;;;14.38;100.00;100100.22;5000853;28;20289;-49
2023/08/07 04:50:52;;;;;;;10.93;2.78;;;;;;;14.41;100.00;100089.25;5000091;28;20181;-48
2023/08/07 04:53:17;;;;;;;10.45;2.67;;;;;;;14.42;100.00;100100.88;5000281;28;20256;-49
2023/08/07 04:55:43;;;;;;;7.47;2.40;;;;;;;14.45;100.00;100108.75;5002631;28;20199;-50
2023/08/07 04:58:08;;;;;;;5.07;2.30;;;;;;;14.43;100.00;100094.56;4999469;28;20603;-49
2023/08/07 05:00:34;;;;;;;5.25;2.40;;;;;;;14.42;100.00;100092.81;5003058;28;20671;-49
2023/08/07 05:03:01;;;;;;;8.93;2.92;;;;;;;14.39;100.00;100093.03;5000095;28;20180;-48
2023/08/07 05:05:27;;;;;;;5.90;2.72;;;;;;;14.35;100.00;100080.72;4991877;28;20196;-49
2023/08/07 05:07:55;;;;;;;6.38;2.72;;;;;;;14.50;100.00;100085.09;5001746;28;20204;-49
2023/08/07 05:10:20;;;;;;;6.70;2.10;;;;;;;14.55;100.00;100092.91;4999752;28;20288;-49
2023/08/07 05:12:45;;;;;;;10.65;2.95;;;;;;;14.56;100.00;100086.53;5002011;28;20268;-49
2023/08/07 05:15:11;;;;;;;7.60;2.42;;;;;;;14.54;100.00;100073.13;4983122;28;20208;-47
2023/08/07 05:17:36;;;;;;;11.63;3.35;;;;;;;14.53;100.00;100087.56;5001869;28;20431;-49
2023/08/07 05:20:02;;;;;;;10.07;3.25;;;;;;;14.54;100.00;100083.03;5002455;28;20176;-48
2023/08/07 05:22:28;;;;;;;6.35;2.85;;;;;;;14.62;100.00;100081.59;4998884;28;20272;-49
2023/08/07 05:24:53;;;;;;;10.93;2.60;;;;;;;14.59;100.00;100084.50;4999264;28;20616;-49
2023/08/07 05:27:18;;;;;;;7.00;2.47;;;;;;;14.67;100.00;100069.63;5001910;28;20719;-49
2023/08/07 05:29:44;;;;;;;13.32;3.25;;;;;;;14.69;100.00;100063.16;5000174;28;20662;-50
2023/08/07 05:32:11;;;;;;;8.60;2.80;;;;;;;14.65;100.00;100064.38;4999039;28;20264;-50
2023/08/07 05:34:37;;;;;;;13.00;2.75;;;;;;;14.86;100.00;100069.25;4999752;28;20549;-48
2023/08/07 05:37:02;;;;;;;9.80;3.03;;;;;;;14.77;100.00;100058.13;5002287;28;20510;-50
2023/08/07 05:39:28;;;;;;;11.07;2.72;;;;;;;14.79;100.00;100066.97;5000958;28;20166;-51
2023/08/07 05:41:54;;;;;;;7.10;2.40;;;;;;;14.79;100.00;100060.72;4999016;28;20227;-51
2023/08/07 05:44:20;;;;;;;7.38;2.60;;;;;;;14.79;100.00;100066.13;5002126;28;20286;-49
2023/08/07 05:46:45;;;;;;;13.20;2.75;;;;;;;14.94;100.00;100061.50;4995902;28;20177;-49
2023/08/07 05:49:11;;;;;;;12.35;3.08;;;;;;;14.96;100.00;100054.19;4997040;28;20200;-49
2023/08/07 05:51:36;;;;;;;13.98;2.70;;;;;;;14.96;100.00;100052.34;5002762;28;20216;-50
2023/08/07 05:54:02;;;;;;;7.10;3.50;;;;;;;15.01;100.00;100070.91;4998790;28;20660;-48
2023/08/07 05:56:27;;;;;;;13.20;2.90;;;;;;;15.03;100.00;100064.41;5000069;28;20262;-47
2023/08/07 05:58:53;;;;;;;7.53;2.60;;;;;;;14.99;100.00;100056.66;5001325;28;20645;-49
2023/08/07 06:01:18;;;;;;;14.52;3.17;;;;;;;15.01;100.00;100054.72;5002784;28;20177;-49
2023/08/07 06:03:44;;;;;;;15.82;3.75;;;;;;;14.96;100.00;100062.28;4999012;28;20180;-48
2023/08/07 06:06:09;;;;;;;13.05;3.00;;;;;;;14.93;100.00;100054.38;4993218;28;20552;-49
2023/08/07 06:08:35;;;;;;;13.65;3.22;;;;;;;14.95;100.00;100055.97;5002107;28;20221;-48
2023/08/07 06:11:03;;;;;;;11.50;2.95;;;;;;;15.03;100.00;100055.47;5002385;28;20188;-49
2023/08/07 06:13:29;;;;;;;18.90;3.63;;;;;;;15.04;100.00;100049.09;4996619;28;20192;-49
2023/08/07 06:15:54;;;;;;;12.90;3.30;;;;;;;15.04;100.00;100049.97;4997962;28;20272;-48
2023/08/07 06:18:20;;;;;;;12.88;3.20;;;;;;;15.09;100.00;100052.34;4997175;28;20205;-49
2023/08/07 06:20:46;;;;;;;13.80;3.50;;;;;;;15.11;100.00;100045.03;5017283;23;20680;-41
2023/08/07 06:23:12;;;;;;;8.20;2.58;;;;;;;15.16;100.00;100055.50;5031971;28;20612;-43
2023/08/07 06:25:37;;;;;;;10.52;3.40;;;;;;;15.12;100.00;100046.72;5031824;28;20584;-41
2023/08/07 06:28:03;;;;;;;13.88;3.03;;;;;;;15.19;99.60;100042.63;5031681;28;20199;-41
2023/08/07 06:30:31;;;;;;;16.52;3.58;;;;;;;15.20;99.17;100036.28;5030815;28;20160;-39
2023/08/07 06:32:56;;;;;;;12.75;3.42;;;;;;;15.15;98.50;100022.25;5031616;28;20630;-42
2023/08/07 06:35:22;;;;;;;17.33;3.65;;;;;;;15.12;98.02;100035.94;5031855;28;20273;-41
2023/08/07 06:37:48;;;;;;;12.80;3.00;;;;;;;15.12;98.22;100038.63;5031261;28;20242;-40
2023/08/07 06:40:13;;;;;;;14.07;3.33;;;;;;;15.11;97.58;100034.22;5013674;28;20192;-40
2023/08/07 06:42:39;;;;;;;13.05;6.50;;;;;;;15.20;96.96;100028.19;5031278;28;20176;-42
2023/08/07 06:45:06;;;;;;;13.35;3.95;;;;;;;15.15;96.67;100034.84;5031233;28;20196;-43
2023/08/07 06:47:32;;;;;;;14.63;3.78;;;;;;;15.20;96.19;100035.41;5031334;28;20278;-42
2023/08/07 06:49:57;;;;;;;11.65;3.28;;;;;;;15.30;95.45;100027.53;5031192;28;20303;-42
2023/08/07 06:52:23;;;;;;;12.68;3.20;;;;;;;15.31;94.72;100038.22;5031285;28;20603;-44
2023/08/07 06:54:48;;;;;;;14.13;3.53;;;;;;;15.28;93.82;100030.31;5031436;28;20168;-42
2023/08/07 06:57:14;;;;;;;14.85;3.65;;;;;;;15.33;92.96;100033.56;5031178;28;20514;-43
2023/08/07 06:59:39;;;;;;;19.80;4.25;;;;;;;15.30;92.63;100035.63;5030924;28;20167;-40
2023/08/07 07:02:05;;;;;;;17.50;3.58;;;;;;;15.18;92.28;100035.50;5031070;28;20269;-41
2023/08/07 07:04:31;;;;;;;11.07;3.40;;;;;;;15.32;91.75;100041.78;5031170;28;20195;-40
2023/08/07 07:06:56;;;;;;;16.85;3.75;;;;;;;15.32;91.84;100036.38;5030625;28;20250;-43
2023/08/07 07:09:22;;;;;;;14.52;3.75;;;;;;;15.33;91.71;100033.56;5031156;28;20341;-40
2023/08/07 07:11:48;;;;;;;19.10;4.15;;;;;;;15.38;91.31;100041.34;5030990;28;20171;-42
2023/08/07 07:14:13;;;;;;;10.35;3.13;;;;;;;15.47;90.86;100027.19;5029461;28;20202;-42
2023/08/07 07:16:39;;;;;;;14.73;3.85;;;;;;;15.52;90.59;100034.94;5030369;28;20179;-43
2023/08/07 07:19:08;;;;;;;14.43;3.08;;;;;;;15.49;90.50;100033.34;5012166;28;20604;-42
2023/08/07 07:21:34;;;;;;;13.85;3.10;;;;;;;15.50;90.05;100035.06;5030150;28;20176;-42
2023/08/07 07:24:00;;;;;;;16.88;3.45;;;;;;;15.38;89.45;100023.31;5012267;28;20171;-42
2023/08/07 07:26:26;;;;;;;17.55;3.95;;;;;;;15.56;89.38;100026.53;5030307;28;20180;-41
2023/08/07 07:28:51;;;;;;;16.90;3.13;;;;;;;15.50;88.75;100024.25;5029541;28;20199;-42
2023/08/07 07:31:17;;;;;;;17.00;3.95;;;;;;;15.70;88.63;100021.97;5030049;28;20170;-39
2023/08/07 07:33:42;;;;;;;15.00;3.63;;;;;;;15.64;88.82;100034.09;5029936;28;20313;-41
2023/08/07 07:36:16;;;;;;;13.43;3.83;;;;;;;15.79;89.21;100051.06;5030874;28;20250;-41
2023/08/07 07:38:43;;;;;;;16.60;3.65;;;;;;;15.77;89.08;100039.50;5012570;28;20222;-41
2023/08/07 07:41:11;;;;;;;14.00;3.53;;;;;;;15.75;89.03;100039.59;5030464;28;20242;-42
2023/08/07 07:43:37;;;;;;;22.52;3.58;;;;;;;15.77;88.97;100053.84;5030271;28;20167;-40
2023/08/07 07:46:03;;;;;;;14.32;3.83;;;;;;;15.89;88.54;100052.09;5030391;28;20203;-40
2023/08/07 07:48:28;;;;;;;20.40;4.45;;;;;;;15.89;88.48;100044.00;5030402;28;20204;-40
2023/08/07 07:51:01;;;;;;;18.67;4.10;;;;;;;15.79;88.29;100048.34;5030270;28;20215;-41
2023/08/07 07:53:27;;;;;;;18.17;4.15;;;;;;;15.80;88.67;100045.53;5030125;28;20859;-42
2023/08/07 07:55:53;;;;;;;18.83;3.95;;;;;;;16.01;88.83;100050.34;5012249;28;20233;-40
2023/08/07 07:58:20;;;;;;;12.65;3.72;;;;;;;15.82;88.57;100065.19;5029847;28;20184;-40
2023/08/07 08:00:45;;;;;;;15.70;3.65;;;;;;;15.95;88.66;100070.56;5030048;28;20180;-43
2023/08/07 08:03:12;;;;;;;14.20;3.80;;;;;;;15.95;88.55;100050.78;5029781;28;20507;-41
2023/08/07 08:05:38;;;;;;;15.13;3.47;;;;;;;15.93;88.73;100061.69;5012527;28;20202;-42
2023/08/07 08:08:06;;;;;;;15.13;3.70;;;;;;;16.10;88.02;100052.38;5030096;28;20241;-40
2023/08/07 08:10:32;;;;;;;24.38;5.03;;;;;;;16.08;87.40;100064.28;4995698;28;20571;-42
2023/08/07 08:12:57;;;;;;;14.25;3.83;;;;;;;16.22;87.37;100058.69;5011793;28;20255;-42
2023/08/07 08:15:24;;;;;;;18.02;4.10;;;;;;;16.16;87.39;100067.25;5030105;28;20566;-43
2023/08/07 08:17:49;;;;;;;22.45;4.57;;;;;;;16.23;87.31;100057.72;5012230;28;20222;-43
2023/08/07 08:20:17;;;;;;;15.45;3.95;;;;;;;16.22;87.84;100061.41;5029609;28;20191;-45
2023/08/07 08:22:42;;;;;;;19.27;4.30;;;;;;;16.24;87.34;100060.31;5011891;28;20168;-43
2023/08/07 08:25:09;;;;;;;15.65;4.45;;;;;;;16.15;86.91;100062.84;5029775;28;20660;-42
2023/08/07 08:27:35;;;;;;;14.68;3.65;;;;;;;16.33;86.66;100050.66;5029402;28;20199;-41
2023/08/07 08:30:01;;;;;;;18.67;4.28;;;;;;;16.47;85.36;100036.97;5029644;28;20283;-41
2023/08/07 08:32:26;;;;;;;18.38;4.15;;;;;;;16.50;85.02;100057.50;5028316;28;20183;-43
2023/08/07 08:34:52;;;;;;;13.02;3.92;;;;;;;16.55;84.38;100063.44;5029442;28;20172;-44
2023/08/07 08:37:17;;;;;;;11.57;3.33;;;;;;;16.51;83.75;100053.84;5029480;28;20697;-41
2023/08/07 08:39:43;;;;;;;14.65;3.85;;;;;;;16.61;83.17;100041.31;5029616;28;20259;-42
2023/08/07 08:42:12;;;;;;;18.35;4.55;;;;;;;16.43;82.89;100053.53;5029325;28;20175;-41
2023/08/07 08:44:39;;;;;;;19.42;4.70;;;;;;;16.37;83.19;100057.56;5028368;28;20199;-41
2023/08/07 08:47:06;;;;;;;16.58;3.88;;;;;;;16.38;83.18;100056.59;5029398;28;20216;-42
2023/08/07 08:49:41;;;;;;;18.23;3.67;;;;;;;16.66;83.42;100076.13;5029194;28;20195;-48
2023/08/07 08:52:08;;;;;;;13.15;3.78;;;;;;;16.84;82.64;100053.13;5029165;28;20239;-43
2023/08/07 08:54:34;;;;;;;15.55;3.53;;;;;;;16.82;81.38;100062.34;5029344;28;20183;-45
2023/08/07 08:57:00;;;;;;;18.63;3.67;;;;;;;16.79;80.98;100060.72;5028772;28;20743;-43
2023/08/07 08:59:26;;;;;;;13.55;3.65;;;;;;;16.67;80.53;100067.91;5029011;28;20176;-41
2023/08/07 09:01:54;;;;;;;14.77;3.45;;;;;;;16.94;80.00;100060.53;5028786;28;20207;-43
2023/08/07 09:04:20;;;;;;;15.35;3.67;;;;;;;16.76;79.09;100046.53;5029146;28;20176;-44
2023/08/07 09:06:46;;;;;;;14.18;3.45;;;;;;;16.76;79.33;100057.38;5029180;28;20164;-41
2023/08/07 09:09:13;;;;;;;15.98;3.97;;;;;;;16.66;79.18;100046.38;5028694;28;20204;-43
2023/08/07 09:11:41;;;;;;;16.00;4.00;;;;;;;16.90;78.56;100057.19;5029008;28;20282;-42
2023/08/07 09:14:09;;;;;;;13.80;3.53;;;;;;;16.91;78.40;100058.06;5028789;28;20187;-43
2023/08/07 09:16:36;;;;;;;12.52;3.72;;;;;;;16.97;78.46;100068.44;5028681;28;20184;-43
2023/08/07 09:19:01;;;;;;;17.95;4.35;;;;;;;17.33;78.09;100050.28;5028434;28;20315;-41
2023/08/07 09:21:28;;;;;;;15.18;3.90;;;;;;;17.56;76.81;100045.72;5028776;28;20278;-45
2023/08/07 09:23:54;;;;;;;12.88;3.55;;;;;;;17.34;76.50;100055.59;5028652;28;20179;-42
2023/08/07 09:26:24;;;;;;;13.95;3.63;;;;;;;17.42;75.97;100023.31;5028550;28;20167;-45
2023/08/07 09:28:52;;;;;;;21.48;4.70;;;;;;;17.39;75.91;100039.84;5028751;28;20207;-43
2023/08/07 09:31:18;;;;;;;19.60;4.65;;;;;;;17.22;75.21;100033.03;5029055;28;20191;-43
2023/08/07 09:33:47;;;;;;;16.95;4.35;;;;;;;17.39;75.39;100031.72;5028412;28;20180;-44
2023/08/07 09:36:12;;;;;;;13.15;3.85;;;;;;;17.49;75.15;100035.41;5028728;28;20234;-41
2023/08/07 09:38:38;;;;;;;20.83;4.38;;;;;;;17.50;74.60;100044.41;5028714;28;20192;-45
2023/08/07 09:41:04;;;;;;;13.40;3.95;;;;;;;17.63;74.38;100053.25;5028840;28;20174;-42
2023/08/07 09:43:34;;;;;;;13.07;3.60;;;;;;;17.64;73.42;100056.81;5028688;28;20198;-41
2023/08/07 09:46:07;;;;;;;19.52;3.90;;;;;;;17.89;73.07;100029.50;5028858;28;20176;-41
2023/08/07 09:48:39;;;;;;;15.10;4.10;;;;;;;18.42;72.69;100012.47;5028520;28;21025;-42
2023/08/07 09:51:05;;;;;;;12.65;3.90;;;;;;;18.59;72.05;100021.06;5028595;28;20219;-43
2023/08/07 09:53:31;;;;;;;18.38;3.85;;;;;;;18.41;71.10;100001.75;5028658;28;20262;-40
2023/08/07 09:55:57;;;;;;;12.32;4.10;;;;;;;18.22;71.01;100016.00;5029423;28;20255;-43
2023/08/07 09:58:24;;;;;;;13.88;3.78;;;;;;;17.95;70.94;100008.31;5014882;28;20698;-41
2023/08/07 10:00:52;;;;;;;14.20;3.90;;;;;;;18.04;71.32;100016.56;5032308;28;20172;-42
2023/08/07 10:03:21;;;;;;;16.92;4.10;;;;;;;18.77;71.17;100024.06;5024458;28;20564;-45
2023/08/07 10:05:47;;;;;;;16.40;3.67;;;;;;;18.78;69.57;100009.50;5021721;28;20555;-45
2023/08/07 10:08:12;;;;;;;13.85;3.80;;;;;;;18.39;70.41;100004.63;5016073;28;20256;-44
2023/08/07 10:10:39;;;;;;;17.17;4.07;;;;;;;17.86;71.51;100037.00;5015900;28;20216;-44
2023/08/07 10:13:05;;;;;;;14.27;3.28;;;;;;;17.78;73.23;100053.03;5022786;28;20230;-43
2023/08/07 10:15:32;;;;;;;12.30;3.60;;;;;;;17.28;73.72;100067.75;5022322;28;20180;-43
2023/08/07 10:17:58;;;;;;;16.40;4.07;;;;;;;17.69;73.20;100050.06;5012654;28;20551;-44
2023/08/07 10:20:28;;;;;;;15.05;3.72;;;;;;;18.12;72.47;100068.25;5020706;28;20201;-46
2023/08/07 10:23:01;;;;;;;11.95;3.38;;;;;;;17.90;71.38;100044.75;5006591;28;20173;-44
2023/08/07 10:25:28;;;;;;;16.70;3.15;;;;;;;17.77;70.14;100048.56;5014591;28;20220;-44
2023/08/07 10:27:57;;;;;;;14.95;3.47;;;;;;;18.06;68.95;100028.13;5018890;28;20208;-45
2023/08/07 10:30:24;;;;;;;15.70;3.25;;;;;;;17.84;69.30;100028.16;5019967;28;20227;-45
2023/08/07 10:32:51;;;;;;;11.75;3.60;;;;;;;17.67;69.26;100027.66;5015406;28;20602;-44
2023/08/07 10:35:48;;;;;;;9.65;3.17;;;;;;;17.70;69.82;100038.22;5014612;28;20264;-45
2023/08/07 10:38:14;;;;;;;15.57;3.53;;;;;;;17.95;68.78;100024.56;5020732;28;20311;-45
2023/08/07 10:41:07;;;;;;;8.18;3.10;;;;;;;17.90;68.29;100011.41;5022412;28;20180;-44
2023/08/07 10:43:38;;;;;;;16.88;3.75;;;;;;;17.79;67.71;99998.69;5014936;28;20177;-45
2023/08/07 10:46:10;;;;;;;12.90;2.95;;;;;;;18.12;68.28;100011.34;5015879;28;20184;-44
2023/08/07 10:48:43;;;;;;;14.15;3.40;;;;;;;18.07;68.62;100023.56;5016265;28;20255;-46
2023/08/07 10:51:16;;;;;;;11.40;2.88;;;;;;;18.01;68.38;100035.75;5000699;28;20200;-45
2023/08/07 10:53:50;;;;;;;8.80;2.83;;;;;;;18.27;68.17;100024.63;5019669;28;20230;-43
2023/08/07 10:56:19;;;;;;;15.13;2.95;;;;;;;18.44;68.79;100037.63;5016447;28;20216;-46
2023/08/07 10:58:52;;;;;;;12.55;3.38;;;;;;;18.36;69.28;100042.81;5018335;28;20741;-44
2023/08/07 11:01:26;;;;;;;16.30;2.83;;;;;;;18.46;69.27;100032.94;4992472;28;20250;-44
2023/08/07 11:03:56;;;;;;;12.23;2.90;;;;;;;18.50;69.92;100038.97;5016054;28;20184;-44
2023/08/07 11:06:33;;;;;;;15.82;2.72;;;;;;;18.77;68.92;100043.91;5016464;28;20184;-44
2023/08/07 11:09:04;;;;;;;15.40;3.53;;;;;;;18.69;68.74;100035.56;5011959;28;20295;-46
2023/08/07 11:11:40;;;;;;;17.92;3.53;;;;;;;18.48;69.31;100043.66;5018163;28;20181;-45
2023/08/07 11:14:13;;;;;;;18.67;3.15;;;;;;;18.21;69.97;100054.94;5017379;28;20188;-46
2023/08/07 11:16:39;;;;;;;10.30;2.63;;;;;;;17.76;71.05;100063.13;5015049;28;20787;-44